Las Vegas, Nevada
Current Conditions -  °F | °C
As of 2:56 AM on Thursday 27 Nov 2014 (Local Time) from KLAS Reporting Station
Clear Clear  
Wind Chill: 45°   Ceiling: Unl
Heat Index: 48°   Visibility: 10mi
Dew Point: 18°   Wind: 7mph
Humidity: 30%   Direction: 210°SSW
Pressure: 30.27"   Gusts: NA
Location:  36.17°N, 115.13°W
Report Text: KLAS 271056Z 21006KT 10SM CLR 09/M08 A3027 RMK AO2 SLP242 T00891078
Loading
Personal Weather Stations






























Interactive Weather Map New forecast layout! Learn more

10-Day Weather Forecast

Advertisements
Track Severe Weather on mobile